createdAt,value
2017-06-24T00:01:02.785Z,28.33
2017-06-24T00:03:29.076Z,29.03
2017-06-24T00:05:55.345Z,29.03
2017-06-24T00:08:21.641Z,29.73
2017-06-24T00:10:48.670Z,29.43
2017-06-24T00:13:14.947Z,31.60
2017-06-24T00:15:41.248Z,30.53
2017-06-24T00:18:08.271Z,29.67
2017-06-24T00:20:34.533Z,29.73
2017-06-24T00:23:01.787Z,32.27
2017-06-24T00:25:28.068Z,32.10
2017-06-24T00:27:54.357Z,34.70
2017-06-24T00:30:20.632Z,31.80
2017-06-24T00:32:46.953Z,32.30
2017-06-24T00:35:13.232Z,31.63
2017-06-24T00:37:39.526Z,32.60
2017-06-24T00:40:05.819Z,33.53
2017-06-24T00:42:32.168Z,30.33
2017-06-24T00:44:58.488Z,33.53
2017-06-24T00:47:24.795Z,31.57
2017-06-24T00:49:51.116Z,32.63
2017-06-24T00:52:17.409Z,31.40
2017-06-24T00:54:43.694Z,30.90
2017-06-24T00:57:09.981Z,29.10
2017-06-24T00:59:36.259Z,27.93
2017-06-24T01:02:02.569Z,26.17
2017-06-24T01:04:28.854Z,26.87
2017-06-24T01:06:55.141Z,27.47
2017-06-24T01:09:21.419Z,29.60
2017-06-24T01:11:47.899Z,29.30
2017-06-24T01:14:14.200Z,26.13
2017-06-24T01:16:41.415Z,25.80
2017-06-24T01:19:07.731Z,25.73
2017-06-24T01:21:34.026Z,27.00
2017-06-24T01:24:00.311Z,25.90
2017-06-24T01:26:26.617Z,27.67
2017-06-24T01:28:52.932Z,27.40
2017-06-24T01:31:19.239Z,25.80
2017-06-24T01:33:46.282Z,28.53
2017-06-24T01:36:13.314Z,27.20
2017-06-24T01:38:40.369Z,26.20
2017-06-24T01:41:07.405Z,25.80
2017-06-24T01:43:33.736Z,25.87
2017-06-24T01:46:00.785Z,24.67
2017-06-24T01:48:27.125Z,24.43
2017-06-24T01:50:53.460Z,24.80
2017-06-24T01:53:19.786Z,22.03
2017-06-24T01:55:46.813Z,22.20
2017-06-24T01:58:13.109Z,23.17
2017-06-24T02:00:39.407Z,23.93
2017-06-24T02:03:05.674Z,23.70
2017-06-24T02:05:32.215Z,21.60
2017-06-24T02:07:58.540Z,22.63
2017-06-24T02:10:24.841Z,24.07
2017-06-24T02:12:51.131Z,23.30
2017-06-24T02:15:18.171Z,22.80
2017-06-24T02:17:45.208Z,20.90
2017-06-24T02:20:11.517Z,21.87
2017-06-24T02:22:37.793Z,21.80
2017-06-24T02:25:04.818Z,21.83
2017-06-24T02:27:31.134Z,23.93
2017-06-24T02:29:57.404Z,23.00
2017-06-24T02:32:23.716Z,22.17
2017-06-24T02:34:49.992Z,21.90
2017-06-24T02:37:16.274Z,23.40
2017-06-24T02:39:42.544Z,23.30
2017-06-24T02:42:08.825Z,25.67
2017-06-24T02:44:35.107Z,23.80
2017-06-24T02:47:01.414Z,24.17
2017-06-24T02:49:27.707Z,24.80
2017-06-24T02:51:53.970Z,25.70
2017-06-24T02:54:20.280Z,26.40
2017-06-24T02:56:47.327Z,25.37
2017-06-24T02:59:13.620Z,27.23
2017-06-24T03:01:39.880Z,26.23
2017-06-24T03:04:06.167Z,23.40
2017-06-24T03:06:32.438Z,23.43
2017-06-24T03:08:58.734Z,25.73
2017-06-24T03:11:25.014Z,23.70
2017-06-24T03:13:52.064Z,25.60
2017-06-24T03:16:19.197Z,23.47
2017-06-24T03:18:46.229Z,24.30
2017-06-24T03:21:12.542Z,24.83
2017-06-24T03:23:38.826Z,25.10
2017-06-24T03:26:05.862Z,26.77
2017-06-24T03:28:32.165Z,26.80
2017-06-24T03:30:58.471Z,26.93
2017-06-24T03:33:24.738Z,29.83
2017-06-24T03:35:51.788Z,27.90
2017-06-24T03:38:18.058Z,25.97
2017-06-24T03:40:44.366Z,26.03
2017-06-24T03:43:11.405Z,26.53
2017-06-24T03:45:37.736Z,27.40
2017-06-24T03:48:04.755Z,28.33
2017-06-24T03:50:31.029Z,25.93
2017-06-24T03:52:57.307Z,26.30
2017-06-24T03:55:23.575Z,26.17
2017-06-24T03:57:50.635Z,27.10
2017-06-24T04:00:16.933Z,25.97
2017-06-24T04:02:43.975Z,24.60
2017-06-24T04:05:10.238Z,24.43
2017-06-24T04:07:36.527Z,27.07
2017-06-24T04:10:02.809Z,22.67
2017-06-24T04:12:29.107Z,22.83
2017-06-24T04:14:56.130Z,21.87
2017-06-24T04:17:22.408Z,21.90
2017-06-24T04:19:48.720Z,22.93
2017-06-24T04:22:15.038Z,21.87
2017-06-24T04:24:41.338Z,23.27
2017-06-24T04:27:07.625Z,20.90
2017-06-24T04:29:33.917Z,22.17
2017-06-24T04:32:00.201Z,20.73
2017-06-24T04:34:26.476Z,21.60
2017-06-24T04:36:52.758Z,22.43
2017-06-24T04:39:19.050Z,22.43
2017-06-24T04:41:46.077Z,21.93
2017-06-24T04:44:12.354Z,21.47
2017-06-24T04:46:38.638Z,21.03
2017-06-24T04:49:04.917Z,23.10
2017-06-24T04:51:31.186Z,20.23
2017-06-24T04:53:57.476Z,19.17
2017-06-24T04:56:23.790Z,21.53
2017-06-24T04:58:50.110Z,20.00
2017-06-24T05:01:16.405Z,20.00
2017-06-24T05:03:42.721Z,20.37
2017-06-24T05:06:09.007Z,19.50
2017-06-24T05:08:35.291Z,20.23
2017-06-24T05:11:01.581Z,18.83
2017-06-24T05:13:27.873Z,18.93
2017-06-24T05:15:54.897Z,21.00
2017-06-24T05:18:21.190Z,19.60
2017-06-24T05:20:47.458Z,20.93
2017-06-24T05:23:13.748Z,18.87
2017-06-24T05:25:40.025Z,20.27
2017-06-24T05:28:07.077Z,21.63
2017-06-24T05:30:33.352Z,21.50
2017-06-24T05:32:59.782Z,21.23
2017-06-24T05:35:26.060Z,22.30
2017-06-24T05:37:52.342Z,21.83
2017-06-24T05:40:18.625Z,24.80
2017-06-24T05:42:45.691Z,24.00
2017-06-24T05:45:12.720Z,26.70
2017-06-24T05:47:38.983Z,24.80
2017-06-24T05:50:05.275Z,24.47
2017-06-24T05:52:31.550Z,25.27
2017-06-24T05:54:57.831Z,25.07
2017-06-24T05:57:24.118Z,25.17
2017-06-24T05:59:50.487Z,26.73
2017-06-24T06:02:16.883Z,28.93
2017-06-24T06:04:43.186Z,25.90
2017-06-24T06:07:09.510Z,27.53
2017-06-24T06:09:35.790Z,29.67
2017-06-24T06:12:02.101Z,28.13
2017-06-24T06:14:28.377Z,29.70
2017-06-24T06:16:55.414Z,31.00
2017-06-24T06:19:21.700Z,30.10
2017-06-24T06:21:47.973Z,29.93
2017-06-24T06:24:14.286Z,29.97
2017-06-24T06:26:40.588Z,31.43
2017-06-24T06:29:06.881Z,33.00
2017-06-24T06:31:33.900Z,33.00
2017-06-24T06:34:00.962Z,31.13
2017-06-24T06:36:27.218Z,32.60
2017-06-24T06:38:54.263Z,33.40
2017-06-24T06:41:21.311Z,33.80
2017-06-24T06:43:48.356Z,33.70
2017-06-24T06:46:15.366Z,33.70
2017-06-24T06:48:41.637Z,33.97
2017-06-24T06:51:09.598Z,35.57
2017-06-24T06:53:35.919Z,33.43
2017-06-24T06:56:02.937Z,33.23
2017-06-24T06:58:29.204Z,33.50
2017-06-24T07:00:56.263Z,33.07
2017-06-24T07:03:22.547Z,35.33
2017-06-24T07:05:48.852Z,32.23
2017-06-24T07:08:16.060Z,35.17
2017-06-24T07:10:43.107Z,31.87
2017-06-24T07:13:10.124Z,31.30
2017-06-24T07:15:36.382Z,28.67
2017-06-24T07:18:03.443Z,27.37
2017-06-24T07:20:29.759Z,27.80
2017-06-24T07:22:56.111Z,25.03
2017-06-24T07:25:22.372Z,25.27
2017-06-24T07:27:48.669Z,24.23
2017-06-24T07:30:14.933Z,26.97
2017-06-24T07:32:41.198Z,23.63
2017-06-24T07:35:08.228Z,23.80
2017-06-24T07:37:34.503Z,23.20
2017-06-24T07:40:00.788Z,23.93
2017-06-24T07:42:27.081Z,25.80
2017-06-24T07:44:53.389Z,23.10
2017-06-24T07:47:19.681Z,23.17
2017-06-24T07:49:45.975Z,22.50
2017-06-24T07:52:12.277Z,21.83
2017-06-24T07:54:38.590Z,22.10
2017-06-24T07:57:05.605Z,21.20
2017-06-24T07:59:31.870Z,21.27
2017-06-24T08:01:58.897Z,20.50
2017-06-24T08:04:25.148Z,20.43
2017-06-24T08:06:51.450Z,20.93
2017-06-24T08:09:17.719Z,20.30
2017-06-24T08:11:44.002Z,20.90
2017-06-24T08:14:10.286Z,21.57
2017-06-24T08:16:36.559Z,20.73
2017-06-24T08:19:02.838Z,19.33
2017-06-24T08:21:29.124Z,21.23
2017-06-24T08:23:55.405Z,20.87
2017-06-24T08:26:21.731Z,18.73
2017-06-24T08:28:48.093Z,20.57
2017-06-24T08:31:14.401Z,18.20
2017-06-24T08:33:40.693Z,19.20
2017-06-24T08:36:08.639Z,21.80
2017-06-24T08:38:34.925Z,19.43
2017-06-24T08:41:01.190Z,20.30
2017-06-24T08:43:27.491Z,21.20
2017-06-24T08:45:53.780Z,21.80
2017-06-24T08:48:20.811Z,20.53
2017-06-24T08:50:47.092Z,20.87
2017-06-24T08:53:13.406Z,20.40
2017-06-24T08:55:39.684Z,20.83
2017-06-24T08:58:05.992Z,20.53
2017-06-24T09:00:32.289Z,20.97
2017-06-24T09:02:58.575Z,18.47
2017-06-24T09:05:24.849Z,18.77
2017-06-24T09:07:51.113Z,17.73
2017-06-24T09:10:17.394Z,18.77
2017-06-24T09:12:43.657Z,18.50
2017-06-24T09:15:09.960Z,18.10
2017-06-24T09:17:36.241Z,17.10
2017-06-24T09:20:02.514Z,18.47
2017-06-24T09:22:28.817Z,19.37
2017-06-24T09:24:55.105Z,19.50
2017-06-24T09:27:21.491Z,18.67
2017-06-24T09:29:47.902Z,17.57
2017-06-24T09:32:14.192Z,19.03
2017-06-24T09:34:40.786Z,18.50
2017-06-24T09:37:07.092Z,20.27
2017-06-24T09:39:34.142Z,19.83
2017-06-24T09:42:00.433Z,18.60
2017-06-24T09:44:26.718Z,19.40
2017-06-24T09:46:53.013Z,20.00
2017-06-24T09:49:19.303Z,19.70
2017-06-24T09:51:45.584Z,20.00
2017-06-24T09:54:11.886Z,19.80
2017-06-24T09:56:38.163Z,19.47
2017-06-24T09:59:05.225Z,20.90
2017-06-24T10:01:32.247Z,20.10
2017-06-24T10:03:58.527Z,20.30
2017-06-24T10:06:24.811Z,18.80
2017-06-24T10:08:51.895Z,18.83
2017-06-24T10:11:18.182Z,19.17
2017-06-24T10:13:44.469Z,18.00
2017-06-24T10:16:10.766Z,19.13
2017-06-24T10:18:37.793Z,19.00
2017-06-24T10:21:04.072Z,18.87
2017-06-24T10:23:30.354Z,17.13
2017-06-24T10:25:56.634Z,16.70
2017-06-24T10:28:22.916Z,16.47
2017-06-24T10:30:49.262Z,16.50
2017-06-24T10:33:16.292Z,17.77
2017-06-24T10:35:43.330Z,16.60
2017-06-24T10:38:09.629Z,17.10
2017-06-24T10:40:35.966Z,17.63
2017-06-24T10:43:02.290Z,16.97
2017-06-24T10:45:28.586Z,16.73
2017-06-24T10:47:54.884Z,17.80
2017-06-24T10:50:21.169Z,17.30
2017-06-24T10:52:47.465Z,18.00
2017-06-24T10:55:14.482Z,18.23
2017-06-24T10:57:40.781Z,18.80
2017-06-24T11:00:07.054Z,18.30
2017-06-24T11:02:34.081Z,19.77
2017-06-24T11:05:00.350Z,19.00
2017-06-24T11:07:27.356Z,18.33
2017-06-24T11:09:53.773Z,18.47
2017-06-24T11:12:20.053Z,16.80
2017-06-24T11:14:47.061Z,19.40
2017-06-24T11:17:13.320Z,18.77
2017-06-24T11:19:40.354Z,17.73
2017-06-24T11:22:06.632Z,17.30
2017-06-24T11:24:32.910Z,18.53
2017-06-24T11:26:59.207Z,18.97
2017-06-24T11:29:25.478Z,19.70
2017-06-24T11:31:52.503Z,20.50
2017-06-24T11:34:18.777Z,20.63
2017-06-24T11:36:45.118Z,20.83
2017-06-24T11:39:11.396Z,20.83
2017-06-24T11:41:37.670Z,20.07
2017-06-24T11:44:03.949Z,20.50
2017-06-24T11:46:30.230Z,20.57
2017-06-24T11:48:56.495Z,19.70
2017-06-24T11:51:22.791Z,19.90
2017-06-24T11:53:49.057Z,18.60
2017-06-24T11:56:15.362Z,19.73
2017-06-24T11:58:41.657Z,19.13
2017-06-24T12:01:08.672Z,20.67
2017-06-24T12:03:34.969Z,20.87
2017-06-24T12:06:01.250Z,20.10
2017-06-24T12:08:28.285Z,20.53
2017-06-24T12:10:54.550Z,20.07
2017-06-24T12:13:20.851Z,21.20
2017-06-24T12:15:47.130Z,21.00
2017-06-24T12:18:13.403Z,19.67
2017-06-24T12:20:39.716Z,20.00
2017-06-24T12:23:06.803Z,20.37
2017-06-24T12:25:33.828Z,20.30
2017-06-24T12:28:00.909Z,20.00
2017-06-24T12:30:27.373Z,19.93
2017-06-24T12:32:54.427Z,20.43
2017-06-24T12:35:20.945Z,21.23
2017-06-24T12:37:47.242Z,19.43
2017-06-24T12:40:13.536Z,19.87
2017-06-24T12:42:39.839Z,19.70
2017-06-24T12:45:06.149Z,20.37
2017-06-24T12:47:32.422Z,19.30
2017-06-24T12:49:58.739Z,19.10
2017-06-24T12:52:25.132Z,20.67
2017-06-24T12:54:51.549Z,20.97
2017-06-24T12:57:17.848Z,21.30
2017-06-24T12:59:44.131Z,21.97
2017-06-24T13:02:10.404Z,22.20
2017-06-24T13:04:36.683Z,24.50
2017-06-24T13:07:02.968Z,22.70
2017-06-24T13:09:29.250Z,23.27
2017-06-24T13:11:55.549Z,23.77
2017-06-24T13:14:22.544Z,23.07
2017-06-24T13:16:48.833Z,24.37
2017-06-24T13:19:15.854Z,22.70
2017-06-24T13:21:42.135Z,22.13
2017-06-24T13:24:08.424Z,22.43
2017-06-24T13:26:35.454Z,22.30
2017-06-24T13:29:09.892Z,23.47
2017-06-24T13:31:36.167Z,21.83
2017-06-24T13:34:02.454Z,20.80
2017-06-24T13:36:28.739Z,21.10
2017-06-24T13:38:55.072Z,22.43
2017-06-24T13:41:21.376Z,23.27
2017-06-24T13:43:47.665Z,22.40
2017-06-24T13:46:14.699Z,23.50
2017-06-24T13:48:40.990Z,21.53
2017-06-24T13:51:08.224Z,22.97
2017-06-24T13:53:34.501Z,22.97
2017-06-24T13:56:00.793Z,23.60
2017-06-24T13:58:27.085Z,23.63
2017-06-24T14:01:28.044Z,24.20
2017-06-24T14:03:54.355Z,24.90
2017-06-24T14:06:21.414Z,24.27
2017-06-24T14:08:48.452Z,23.70
2017-06-24T14:11:14.738Z,24.30
2017-06-24T14:13:41.034Z,24.63
2017-06-24T14:16:07.300Z,25.27
2017-06-24T14:18:33.687Z,23.73
2017-06-24T14:21:00.713Z,25.87
2017-06-24T14:23:27.005Z,24.97
2017-06-24T14:25:53.295Z,26.10
2017-06-24T14:28:20.336Z,26.40
2017-06-24T14:30:47.342Z,26.53
2017-06-24T14:33:13.638Z,26.00
2017-06-24T14:35:39.927Z,26.97
2017-06-24T14:38:06.194Z,25.20
2017-06-24T14:40:32.474Z,24.60
2017-06-24T14:42:58.768Z,26.23
2017-06-24T14:45:25.138Z,24.90
2017-06-24T14:47:51.515Z,26.30
2017-06-24T14:50:17.791Z,24.13
2017-06-24T14:52:44.077Z,24.60
2017-06-24T14:55:10.362Z,24.63
2017-06-24T14:57:36.642Z,21.70
2017-06-24T15:00:02.941Z,20.50
2017-06-24T15:02:30.082Z,19.27
2017-06-24T15:04:57.109Z,19.17
2017-06-24T15:07:24.149Z,18.40
2017-06-24T15:09:50.494Z,17.97
2017-06-24T15:12:18.450Z,17.50
2017-06-24T15:14:44.755Z,17.53
2017-06-24T15:17:11.060Z,17.60
2017-06-24T15:19:37.324Z,19.43
2017-06-24T15:22:03.622Z,22.10
2017-06-24T15:24:29.877Z,19.30
2017-06-24T15:26:56.171Z,19.50
2017-06-24T15:29:22.475Z,18.43
2017-06-24T15:31:49.531Z,20.60
2017-06-24T15:34:15.991Z,18.80
2017-06-24T15:36:42.292Z,15.90
2017-06-24T15:39:08.637Z,16.57
2017-06-24T15:41:35.007Z,14.27
2017-06-24T15:44:01.294Z,13.40
2017-06-24T15:46:27.579Z,12.03
2017-06-24T15:48:53.880Z,10.70
2017-06-24T15:51:21.820Z,8.20
2017-06-24T15:53:48.845Z,8.90
2017-06-24T15:56:16.187Z,8.90
2017-06-24T15:58:42.474Z,8.20
2017-06-24T16:01:08.769Z,8.17
2017-06-24T16:03:35.811Z,8.30
2017-06-24T16:06:02.832Z,7.13
2017-06-24T16:08:29.147Z,7.07
2017-06-24T16:10:55.429Z,6.43
2017-06-24T16:13:21.685Z,6.63
2017-06-24T16:15:47.970Z,7.27
2017-06-24T16:18:14.979Z,6.63
2017-06-24T16:20:41.282Z,6.40
2017-06-24T16:23:07.583Z,5.70
2017-06-24T16:25:33.930Z,7.97
2017-06-24T16:28:00.210Z,5.13
2017-06-24T16:30:26.522Z,6.27
2017-06-24T16:32:52.838Z,3.80
2017-06-24T16:35:19.170Z,3.87
2017-06-24T16:37:45.607Z,4.10
2017-06-24T16:40:11.894Z,3.50
2017-06-24T16:42:38.336Z,3.50
2017-06-24T16:45:04.662Z,3.13
2017-06-24T16:47:30.993Z,2.90
2017-06-24T16:49:58.014Z,3.70
2017-06-24T16:52:24.392Z,3.30
2017-06-24T16:54:50.721Z,4.70
2017-06-24T16:57:17.091Z,4.33
2017-06-24T16:59:44.195Z,4.20
2017-06-24T17:02:10.489Z,3.83
2017-06-24T17:04:36.762Z,5.17
2017-06-24T17:07:03.348Z,4.67
2017-06-24T17:09:29.708Z,3.07
2017-06-24T17:11:56.033Z,3.67
2017-06-24T17:14:24.004Z,5.17
2017-06-24T17:16:51.032Z,3.50
2017-06-24T17:19:17.341Z,4.10
2017-06-24T17:21:43.638Z,4.50
2017-06-24T17:24:09.911Z,3.70
2017-06-24T17:26:36.979Z,5.67
2017-06-24T17:29:04.030Z,2.97
2017-06-24T17:31:30.315Z,3.10
2017-06-24T17:33:56.580Z,2.83
2017-06-24T17:36:24.000Z,5.70
2017-06-24T17:38:50.266Z,4.10
2017-06-24T17:41:17.582Z,5.20
2017-06-24T17:43:43.975Z,4.70
2017-06-24T17:46:10.293Z,3.37
2017-06-24T17:48:36.628Z,4.37
2017-06-24T17:51:02.911Z,4.00
2017-06-24T17:53:29.178Z,3.97
2017-06-24T17:55:55.475Z,3.40
2017-06-24T17:58:21.737Z,5.10
2017-06-24T18:00:48.777Z,3.20
2017-06-24T18:03:15.796Z,3.97
2017-06-24T18:05:42.086Z,3.20
2017-06-24T18:08:08.373Z,5.47
2017-06-24T18:10:34.648Z,3.10
2017-06-24T18:13:00.977Z,3.40
2017-06-24T18:15:28.276Z,4.20
2017-06-24T18:17:54.571Z,3.60
2017-06-24T18:20:21.558Z,4.30
2017-06-24T18:22:47.841Z,3.97
2017-06-24T18:25:14.106Z,5.17
2017-06-24T18:27:40.485Z,6.00
2017-06-24T18:30:06.774Z,4.83
2017-06-24T18:32:33.828Z,3.30
2017-06-24T18:35:00.863Z,3.47
2017-06-24T18:37:27.903Z,3.40
2017-06-24T18:39:54.194Z,4.03
2017-06-24T18:42:20.505Z,5.07
2017-06-24T18:44:48.434Z,7.77
2017-06-24T18:47:14.758Z,5.27
2017-06-24T18:49:41.084Z,2.80
2017-06-24T18:52:07.481Z,2.83
2017-06-24T18:54:33.875Z,3.27
2017-06-24T18:57:00.185Z,4.53
2017-06-24T18:59:26.615Z,3.07
2017-06-24T19:01:54.215Z,6.00
2017-06-24T19:04:20.595Z,4.40
2017-06-24T19:06:46.979Z,4.63
2017-06-24T19:09:13.990Z,3.33
2017-06-24T19:11:40.284Z,4.50
2017-06-24T19:14:06.551Z,2.70
2017-06-24T19:16:33.626Z,2.87
2017-06-24T19:19:00.650Z,2.93
2017-06-24T19:21:27.690Z,2.93
2017-06-24T19:23:53.994Z,4.00
2017-06-24T19:26:20.305Z,4.07
2017-06-24T19:28:46.644Z,2.50
2017-06-24T19:31:12.950Z,3.17
2017-06-24T19:33:39.226Z,4.10
2017-06-24T19:36:05.525Z,5.40
2017-06-24T19:38:31.849Z,3.70
2017-06-24T19:40:58.119Z,2.90
2017-06-24T19:43:24.398Z,3.37
2017-06-24T19:45:50.719Z,3.77
2017-06-24T19:48:17.769Z,3.90
2017-06-24T19:50:44.060Z,2.87
2017-06-24T19:53:10.394Z,5.00
2017-06-24T19:55:36.679Z,2.97
2017-06-24T19:58:02.965Z,2.83
2017-06-24T20:00:29.270Z,3.57
2017-06-24T20:02:55.909Z,4.83
2017-06-24T20:05:22.250Z,3.87
2017-06-24T20:07:48.528Z,2.70
2017-06-24T20:10:15.771Z,3.50
2017-06-24T20:12:42.117Z,7.10
2017-06-24T20:15:08.418Z,3.13
2017-06-24T20:17:34.729Z,6.37
2017-06-24T20:20:01.010Z,3.83
2017-06-24T20:22:27.329Z,3.43
2017-06-24T20:24:53.610Z,5.13
2017-06-24T20:27:19.909Z,3.30
2017-06-24T20:29:46.379Z,5.97
2017-06-24T20:32:13.771Z,3.57
2017-06-24T20:34:40.097Z,3.47
2017-06-24T20:37:06.722Z,5.73
2017-06-24T20:39:33.756Z,2.83
2017-06-24T20:42:00.140Z,3.53
2017-06-24T20:44:26.442Z,3.63
2017-06-24T20:46:52.946Z,3.00
2017-06-24T20:49:20.077Z,3.80
2017-06-24T20:51:46.405Z,5.70
2017-06-24T20:54:12.658Z,3.80
2017-06-24T20:56:38.941Z,4.50
2017-06-24T20:59:05.260Z,3.23
2017-06-24T21:01:31.572Z,3.27
2017-06-24T21:03:58.590Z,4.77
2017-06-24T21:06:24.878Z,4.23
2017-06-24T21:08:51.189Z,3.50
2017-06-24T21:11:17.490Z,3.93
2017-06-24T21:13:44.599Z,5.13
2017-06-24T21:16:10.891Z,2.67
2017-06-24T21:18:37.173Z,4.40
2017-06-24T21:21:03.598Z,4.07
2017-06-24T21:23:29.915Z,4.00
2017-06-24T21:25:56.254Z,3.90
2017-06-24T21:28:22.554Z,4.87
2017-06-24T21:30:49.629Z,3.20
2017-06-24T21:33:16.958Z,4.27
2017-06-24T21:35:43.395Z,2.97
2017-06-24T21:38:09.856Z,4.30
2017-06-24T21:40:36.155Z,2.80
2017-06-24T21:43:02.436Z,4.00
2017-06-24T21:45:28.717Z,3.23
2017-06-24T21:47:56.821Z,3.87
2017-06-24T21:50:23.117Z,3.50
2017-06-24T21:52:50.369Z,4.73
2017-06-24T21:55:16.658Z,4.10
2017-06-24T21:57:43.680Z,3.53
2017-06-24T22:00:09.974Z,2.93
2017-06-24T22:02:36.278Z,3.20
2017-06-24T22:05:03.328Z,5.50
2017-06-24T22:07:29.601Z,5.07
2017-06-24T22:09:55.979Z,4.07
2017-06-24T22:12:23.338Z,4.63
2017-06-24T22:14:49.616Z,4.60
2017-06-24T22:17:15.904Z,4.70
2017-06-24T22:19:42.177Z,3.30
2017-06-24T22:22:08.482Z,6.70
2017-06-24T22:24:34.736Z,4.40
2017-06-24T22:27:01.029Z,4.30
2017-06-24T22:29:27.306Z,4.17
2017-06-24T22:31:53.577Z,4.77
2017-06-24T22:34:20.593Z,3.17
2017-06-24T22:36:47.625Z,3.77
2017-06-24T22:39:13.924Z,3.53
2017-06-24T22:41:40.209Z,4.30
2017-06-24T22:44:06.596Z,4.20
2017-06-24T22:46:32.878Z,3.53
2017-06-24T22:48:59.921Z,6.40
2017-06-24T22:51:26.968Z,4.53
2017-06-24T22:53:53.989Z,4.57
2017-06-24T22:56:20.269Z,5.07
2017-06-24T22:58:46.529Z,3.83
2017-06-24T23:01:12.825Z,6.70
2017-06-24T23:03:39.130Z,4.90
2017-06-24T23:06:06.149Z,4.97
2017-06-24T23:08:32.469Z,4.60
2017-06-24T23:10:58.748Z,4.73
2017-06-24T23:13:25.770Z,4.57
2017-06-24T23:15:52.850Z,5.57
2017-06-24T23:18:19.127Z,5.67
2017-06-24T23:20:45.411Z,4.40
2017-06-24T23:23:11.690Z,4.50
2017-06-24T23:25:37.990Z,4.90
2017-06-24T23:28:04.262Z,3.70
2017-06-24T23:30:30.545Z,4.93
2017-06-24T23:32:56.863Z,4.13
2017-06-24T23:35:23.142Z,4.53
2017-06-24T23:37:49.438Z,4.73
2017-06-24T23:40:15.712Z,4.70
2017-06-24T23:42:42.004Z,4.77
2017-06-24T23:45:08.288Z,3.97
2017-06-24T23:47:35.291Z,4.47
2017-06-24T23:50:01.602Z,4.50
2017-06-24T23:52:27.896Z,4.20
2017-06-24T23:54:54.181Z,4.33
2017-06-24T23:57:20.453Z,4.60
2017-06-24T23:59:47.482Z,5.70
